Time;durP1;ratioP1;P1;durP2;ratioP2;P2;SDS_P1;SDS_P2;PMS_P1;PMS_P2;Temp;Humidity;BMP_temperature;BMP_pressure;BME280_temperature;BME280_humidity;BME280_pressure;Samples;Min_cycle;Max_cycle;Signal;HPM_P1;HPM_P2
2022/05/26 00:00:19;;;;;;;74.53;68.37;;;;;;;13.71;100.00;101905.58;1980338;72;26268;-72
2022/05/26 00:02:49;;;;;;;70.67;65.07;;;;;;;13.63;100.00;101904.75;1980191;72;26794;-71
2022/05/26 00:05:19;;;;;;;74.90;68.97;;;;;;;13.60;100.00;101910.91;1980308;72;26254;-72
2022/05/26 00:07:50;;;;;;;73.43;67.30;;;;;;;13.50;100.00;101906.16;1980305;72;26172;-72
2022/05/26 00:10:21;;;;;;;73.27;67.00;;;;;;;13.46;100.00;101909.22;1979625;72;26168;-72
2022/05/26 00:12:51;;;;;;;71.67;65.63;;;;;;;13.55;100.00;101918.72;1979759;72;26759;-71
2022/05/26 00:15:21;;;;;;;71.27;65.33;;;;;;;13.52;100.00;101910.08;1979646;72;26197;-72
2022/05/26 00:17:52;;;;;;;72.83;66.47;;;;;;;13.47;100.00;101907.28;1979612;72;26718;-72
2022/05/26 00:20:22;;;;;;;70.43;64.67;;;;;;;13.48;100.00;101911.72;1979716;72;26209;-72
2022/05/26 00:22:52;;;;;;;69.00;62.90;;;;;;;13.45;100.00;101908.94;1979695;72;26193;-72
2022/05/26 00:25:24;;;;;;;70.77;64.97;;;;;;;13.43;100.00;101908.40;1979848;72;26213;-71
2022/05/26 00:27:54;;;;;;;72.73;66.77;;;;;;;13.48;100.00;101905.58;1979588;72;26176;-72
2022/05/26 00:30:25;;;;;;;75.03;69.30;;;;;;;13.49;100.00;101912.84;1979539;72;26164;-72
2022/05/26 00:32:55;;;;;;;69.07;63.27;;;;;;;13.47;100.00;101915.09;1979817;72;26287;-71
2022/05/26 00:35:25;;;;;;;69.43;63.43;;;;;;;13.36;100.00;101925.11;1979809;72;26194;-72
2022/05/26 00:37:56;;;;;;;71.47;65.50;;;;;;;13.38;100.00;101915.36;1979614;72;26247;-71
2022/05/26 00:40:27;;;;;;;73.23;67.27;;;;;;;13.41;100.00;101930.70;1979690;72;26253;-71
2022/05/26 00:42:59;;;;;;;74.67;68.33;;;;;;;13.34;100.00;101928.76;1979620;72;26201;-72
2022/05/26 00:48:42;;;;;;;73.60;67.40;;;;;;;13.29;100.00;101932.38;2041714;69;33306;-71
2022/05/26 00:51:13;;;;;;;72.00;65.97;;;;;;;13.21;100.00;101939.90;1946370;73;26223;-71
2022/05/26 00:53:46;;;;;;;72.57;66.53;;;;;;;13.23;100.00;101944.63;1937861;74;26702;-71
2022/05/26 00:59:29;;;;;;;75.47;69.23;;;;;;;13.30;100.00;101938.25;2037043;69;32641;-73
2022/05/26 01:02:00;;;;;;;73.60;67.57;;;;;;;13.26;100.00;101937.67;2019362;70;26250;-73
2022/05/26 01:04:34;;;;;;;70.13;63.77;;;;;;;13.17;100.00;101942.41;2012324;70;26218;-74
2022/05/26 01:07:09;;;;;;;73.13;67.13;;;;;;;13.27;100.00;101947.15;2016193;70;26226;-74
2022/05/26 01:09:39;;;;;;;74.43;68.23;;;;;;;13.17;100.00;101949.38;2012860;70;26223;-73
2022/05/26 01:12:10;;;;;;;72.10;65.63;;;;;;;13.23;100.00;101954.39;2010567;70;26247;-74
2022/05/26 01:14:43;;;;;;;72.77;66.87;;;;;;;13.28;100.00;101952.17;2010229;70;26208;-73
2022/05/26 01:17:20;;;;;;;71.17;65.40;;;;;;;13.21;100.00;101957.48;2023497;70;26279;-73
2022/05/26 01:20:07;;;;;;;72.70;66.47;;;;;;;13.18;100.00;101951.59;2017914;70;26266;-73
2022/05/26 01:22:49;;;;;;;73.83;67.73;;;;;;;13.17;100.00;101951.33;2019529;70;27341;-73
2022/05/26 01:25:29;;;;;;;79.07;73.00;;;;;;;13.12;100.00;101959.69;2017207;70;26557;-72
2022/05/26 01:28:06;;;;;;;75.60;69.37;;;;;;;13.16;100.00;101959.41;2013638;70;26261;-72
2022/05/26 01:30:41;;;;;;;74.97;68.47;;;;;;;13.13;100.00;101962.21;2012431;70;26313;-72
2022/05/26 01:33:22;;;;;;;73.57;67.63;;;;;;;13.16;100.00;101967.78;2019387;70;26202;-72
2022/05/26 01:36:03;;;;;;;76.63;70.03;;;;;;;13.11;100.00;101969.16;2008042;70;26293;-72
2022/05/26 01:38:37;;;;;;;75.50;69.50;;;;;;;13.05;100.00;101963.27;2015783;70;26223;-72
2022/05/26 01:41:13;;;;;;;74.37;68.23;;;;;;;12.98;100.00;101964.06;2023981;70;26319;-73
2022/05/26 01:43:48;;;;;;;73.03;67.07;;;;;;;12.97;100.00;101966.56;2012193;70;26982;-73
2022/05/26 01:49:29;;;;;;;68.97;63.27;;;;;;;13.00;100.00;101960.46;2052988;69;32570;-73
2022/05/26 01:52:03;;;;;;;69.03;62.67;;;;;;;12.96;100.00;101974.67;2020025;70;26194;-73
2022/05/26 01:54:36;;;;;;;76.43;70.33;;;;;;;12.97;100.00;101977.72;1940516;73;26285;-72
2022/05/26 02:00:17;;;;;;;72.03;66.07;;;;;;;12.90;100.00;101974.36;2034309;69;33280;-73
2022/05/26 02:02:53;;;;;;;75.93;70.00;;;;;;;12.90;100.00;101979.39;1946214;73;26270;-73
2022/05/26 02:05:26;;;;;;;75.07;68.70;;;;;;;12.86;100.00;101980.20;2015399;71;26276;-73
2022/05/26 02:08:00;;;;;;;72.47;66.37;;;;;;;12.83;100.00;101978.81;1934343;73;26340;-73
2022/05/26 02:10:34;;;;;;;69.87;63.57;;;;;;;12.90;100.00;101979.94;1944020;73;26818;-73
2022/05/26 02:13:11;;;;;;;69.17;63.27;;;;;;;12.74;100.00;101983.23;1968518;72;26315;-73
2022/05/26 02:15:44;;;;;;;68.60;62.80;;;;;;;12.73;100.00;101992.70;1934747;73;26223;-73
2022/05/26 02:21:26;;;;;;;70.73;64.50;;;;;;;12.53;100.00;101988.43;2052882;69;32552;-71
2022/05/26 02:24:01;;;;;;;73.47;67.60;;;;;;;12.46;100.00;101992.83;2006513;70;26709;-71
2022/05/26 02:26:34;;;;;;;66.30;60.57;;;;;;;12.42;100.00;101999.21;2004846;70;26202;-71
2022/05/26 02:31:56;;;;;;;68.40;62.40;;;;;;;12.34;100.00;102000.56;2012907;70;26230;-74
2022/05/26 02:34:27;;;;;;;68.40;62.60;;;;;;;12.45;100.00;102000.91;2015157;70;26748;-73
2022/05/26 02:36:59;;;;;;;70.57;64.70;;;;;;;12.42;100.00;102002.84;2012818;70;26211;-73
2022/05/26 02:39:30;;;;;;;72.10;66.20;;;;;;;12.48;100.00;102003.17;2012917;70;26231;-73
2022/05/26 02:42:01;;;;;;;73.60;67.70;;;;;;;12.49;100.00;102009.03;2003404;70;26329;-73
2022/05/26 02:44:34;;;;;;;69.77;63.53;;;;;;;12.35;100.00;102012.00;2016361;71;26194;-73
2022/05/26 02:47:43;;;;;;;70.17;64.43;;;;;;;12.39;100.00;102007.57;2012818;70;26207;-73
2022/05/26 02:50:24;;;;;;;68.33;62.10;;;;;;;12.36;100.00;102015.08;1906603;74;26252;-72
2022/05/26 02:53:03;;;;;;;67.67;62.07;;;;;;;12.43;100.00;102015.67;1936248;73;26705;-72
2022/05/26 02:58:49;;;;;;;70.93;65.13;;;;;;;12.38;100.00;102008.67;2060970;69;32607;-73
2022/05/26 03:01:23;;;;;;;73.17;67.20;;;;;;;12.38;100.00;102012.85;2017746;70;26380;-73
2022/05/26 03:03:57;;;;;;;73.93;68.13;;;;;;;12.35;100.00;102024.55;1937674;73;26281;-73
2022/05/26 03:09:36;;;;;;;75.47;69.53;;;;;;;12.40;100.00;102017.62;2053194;69;32704;-72
2022/05/26 03:12:22;;;;;;;72.73;66.70;;;;;;;12.38;100.00;102024.00;1946543;73;26256;-73
2022/05/26 03:14:54;;;;;;;73.77;67.70;;;;;;;12.35;100.00;102032.91;1941438;73;26212;-72
2022/05/26 03:17:25;;;;;;;75.97;69.97;;;;;;;12.39;100.00;102023.45;1967524;72;26534;-73
2022/05/26 03:19:55;;;;;;;71.67;65.87;;;;;;;12.32;100.00;102022.30;1934629;73;26223;-73
2022/05/26 03:22:28;;;;;;;74.60;68.67;;;;;;;12.33;100.00;102028.14;1927281;73;26704;-73
2022/05/26 03:24:59;;;;;;;70.83;65.40;;;;;;;12.33;100.00;102022.56;1937807;73;26292;-73
2022/05/26 03:27:29;;;;;;;70.30;64.37;;;;;;;12.28;100.00;102020.58;1937191;73;26320;-73
2022/05/26 03:30:00;;;;;;;72.70;67.17;;;;;;;12.27;100.00;102023.66;1937397;73;26215;-73
2022/05/26 03:32:30;;;;;;;69.33;63.37;;;;;;;12.27;100.00;102016.69;1931600;73;26549;-73
2022/05/26 03:40:50;;;;;;;70.37;64.63;;;;;;;12.39;100.00;102017.88;1937797;73;26764;-73
2022/05/26 03:43:21;;;;;;;71.27;65.43;;;;;;;12.21;100.00;102019.98;1937777;73;26764;-72
2022/05/26 03:45:52;;;;;;;68.50;63.03;;;;;;;12.24;100.00;102022.23;1937736;73;26784;-73
2022/05/26 03:48:22;;;;;;;70.33;64.53;;;;;;;12.19;100.00;102017.19;1934221;73;26694;-72
2022/05/26 03:50:52;;;;;;;74.17;68.43;;;;;;;12.16;100.00;102021.34;2016486;70;26223;-73
2022/05/26 03:53:23;;;;;;;73.20;67.40;;;;;;;12.28;100.00;102032.27;2016710;70;26716;-72
2022/05/26 03:55:53;;;;;;;73.77;67.40;;;;;;;12.30;100.00;102028.69;1992246;70;26716;-72
2022/05/26 03:58:24;;;;;;;71.20;65.27;;;;;;;12.29;100.00;102026.45;1976511;72;26646;-72
2022/05/26 04:04:00;;;;;;;76.53;70.43;;;;;;;12.23;100.00;102025.30;2053249;69;32629;-72
2022/05/26 04:06:30;;;;;;;77.17;71.33;;;;;;;12.22;100.00;102037.00;1948751;73;26462;-73
2022/05/26 04:09:00;;;;;;;72.80;66.80;;;;;;;12.28;100.00;102036.45;1929671;73;26306;-73
2022/05/26 04:11:30;;;;;;;73.10;67.23;;;;;;;12.25;100.00;102030.88;1969941;72;26667;-73
2022/05/26 04:14:01;;;;;;;71.47;65.83;;;;;;;12.25;100.00;102042.57;1937774;73;26224;-73
2022/05/26 04:16:31;;;;;;;77.37;70.87;;;;;;;12.25;100.00;102058.73;1934637;73;26810;-73
2022/05/26 04:19:01;;;;;;;77.23;71.13;;;;;;;12.29;100.00;102057.64;1938393;73;26248;-72
2022/05/26 04:21:32;;;;;;;73.00;67.53;;;;;;;12.41;100.00;102059.67;1938956;73;26205;-73
2022/05/26 04:24:02;;;;;;;71.47;65.47;;;;;;;12.40;100.00;102055.78;1939709;73;26223;-73
2022/05/26 04:26:33;;;;;;;75.70;69.73;;;;;;;12.43;100.00;102056.63;1936155;73;26216;-72
2022/05/26 04:29:14;;;;;;;76.70;70.67;;;;;;;12.37;100.00;102057.14;2018233;70;26754;-73
2022/05/26 04:31:44;;;;;;;73.43;67.67;;;;;;;12.35;100.00;102071.06;2019898;70;26665;-72
2022/05/26 04:34:14;;;;;;;73.17;67.17;;;;;;;12.39;100.00;102068.03;2016766;70;26406;-72
2022/05/26 04:36:45;;;;;;;79.50;73.57;;;;;;;12.44;100.00;102077.83;2016802;70;26187;-72
2022/05/26 04:39:16;;;;;;;76.70;70.67;;;;;;;12.43;100.00;102070.02;2004311;70;26207;-73
2022/05/26 04:41:47;;;;;;;77.57;71.63;;;;;;;12.48;100.00;102074.79;2016797;70;26651;-73
2022/05/26 04:44:19;;;;;;;74.40;68.37;;;;;;;12.49;100.00;102082.89;2007018;70;26297;-72
2022/05/26 04:46:50;;;;;;;77.10;70.87;;;;;;;12.44;100.00;102083.40;2023264;70;26676;-72
2022/05/26 04:49:20;;;;;;;75.30;69.47;;;;;;;12.47;100.00;102082.86;2010854;70;26219;-72
2022/05/26 04:51:50;;;;;;;77.13;71.07;;;;;;;12.44;100.00;102086.19;2023195;70;26221;-72
2022/05/26 04:54:21;;;;;;;76.00;70.20;;;;;;;12.55;100.00;102085.14;2019129;70;26300;-73
2022/05/26 04:56:51;;;;;;;76.57;70.57;;;;;;;12.53;100.00;102089.61;1981727;70;26229;-72
2022/05/26 04:59:22;;;;;;;76.03;70.13;;;;;;;12.53;100.00;102089.61;1976932;72;26660;-72
2022/05/26 05:01:52;;;;;;;73.73;67.53;;;;;;;12.63;100.00;102077.11;1988226;72;26199;-72
2022/05/26 05:04:25;;;;;;;74.57;68.63;;;;;;;12.67;100.00;102087.16;1997736;72;26208;-72
2022/05/26 05:06:56;;;;;;;71.60;65.90;;;;;;;12.65;100.00;102089.40;1920350;74;26670;-72
2022/05/26 05:09:26;;;;;;;76.10;70.23;;;;;;;12.66;100.00;102083.53;1912957;75;26634;-73
2022/05/26 05:11:56;;;;;;;78.00;72.17;;;;;;;12.69;100.00;102091.38;1954218;73;26256;-72
2022/05/26 05:14:27;;;;;;;75.33;69.43;;;;;;;12.77;100.00;102092.81;1941662;74;26224;-73
2022/05/26 05:16:57;;;;;;;73.23;67.37;;;;;;;12.82;100.00;102083.09;1953597;73;26237;-72
2022/05/26 05:19:28;;;;;;;69.67;63.77;;;;;;;12.87;100.00;102086.47;1953624;73;26266;-71
2022/05/26 05:22:01;;;;;;;69.83;63.93;;;;;;;12.91;100.00;102090.39;1953426;73;26195;-73
2022/05/26 05:24:39;;;;;;;71.87;66.23;;;;;;;12.95;100.00;102090.13;1953642;73;26176;-72
2022/05/26 05:30:22;;;;;;;77.47;71.30;;;;;;;13.02;100.00;102088.77;2041672;69;32643;-72
2022/05/26 05:32:55;;;;;;;72.50;66.57;;;;;;;13.11;100.00;102097.48;1942791;73;26801;-72
2022/05/26 05:35:29;;;;;;;68.33;62.27;;;;;;;13.17;100.00;102096.41;2009878;70;26214;-71
2022/05/26 05:37:59;;;;;;;67.10;61.10;;;;;;;13.23;100.00;102093.91;2013743;70;26191;-72
2022/05/26 05:40:30;;;;;;;70.13;64.23;;;;;;;13.26;100.00;102092.55;2015785;70;26291;-73
2022/05/26 05:43:00;;;;;;;72.90;66.70;;;;;;;13.31;100.00;102097.56;2009403;70;26231;-72
2022/05/26 05:45:31;;;;;;;68.17;62.23;;;;;;;13.38;100.00;102095.94;2012450;70;26288;-73
2022/05/26 05:48:01;;;;;;;66.23;60.43;;;;;;;13.43;100.00;102105.17;2013461;70;26836;-73
2022/05/26 05:50:31;;;;;;;68.87;62.53;;;;;;;13.46;100.00;102110.20;2019110;70;26218;-72
2022/05/26 05:53:02;;;;;;;70.57;64.33;;;;;;;13.59;100.00;102117.22;2018762;70;26296;-72
2022/05/26 05:55:34;;;;;;;71.97;66.07;;;;;;;13.65;100.00;102118.34;2020421;70;26240;-71
2022/05/26 05:58:07;;;;;;;71.90;66.03;;;;;;;13.74;100.00;102124.23;1976318;72;26285;-70
2022/05/26 06:00:37;;;;;;;75.10;69.20;;;;;;;13.82;100.00;102113.09;1982490;72;26768;-71
2022/05/26 06:03:07;;;;;;;76.60;70.77;;;;;;;13.89;100.00;102117.85;1982139;72;26287;-72
2022/05/26 06:05:38;;;;;;;74.87;69.17;;;;;;;13.97;100.00;102122.89;1983148;72;26313;-71
2022/05/26 06:08:09;;;;;;;71.27;65.70;;;;;;;14.02;100.00;102127.94;1980280;72;26701;-71
2022/05/26 06:10:39;;;;;;;78.60;72.60;;;;;;;14.12;100.00;102124.29;1985293;72;26274;-73
2022/05/26 06:13:09;;;;;;;77.53;72.00;;;;;;;14.25;100.00;102125.73;1979823;72;26208;-71
2022/05/26 06:15:45;;;;;;;79.73;73.93;;;;;;;14.29;100.00;102134.64;1974229;72;26727;-72
2022/05/26 06:18:16;;;;;;;73.67;68.17;;;;;;;14.15;100.00;102130.74;1975797;72;26779;-73
2022/05/26 06:20:46;;;;;;;77.07;71.47;;;;;;;14.19;100.00;102138.85;1969876;72;26645;-72
2022/05/26 06:23:19;;;;;;;74.67;68.87;;;;;;;14.27;100.00;102134.09;1980384;72;26278;-71
2022/05/26 06:25:49;;;;;;;74.73;69.23;;;;;;;14.29;100.00;102136.62;1978577;72;26387;-73
2022/05/26 06:31:08;;;;;;;71.87;66.20;;;;;;;14.39;100.00;102130.50;1980448;72;26218;-72
2022/05/26 06:39:30;;;;;;;69.47;64.03;;;;;;;14.55;100.00;102142.50;1979719;72;26262;-73
2022/05/26 06:42:06;;;;;;;70.87;65.30;;;;;;;14.62;100.00;102139.44;1979720;72;26201;-71
2022/05/26 06:44:40;;;;;;;72.63;66.80;;;;;;;14.69;100.00;102139.42;1979656;72;26752;-72
2022/05/26 06:47:15;;;;;;;73.93;68.63;;;;;;;14.81;100.00;102134.92;1979710;72;26199;-71
2022/05/26 06:49:46;;;;;;;71.23;65.80;;;;;;;14.90;100.00;102139.67;1909733;74;26294;-72
2022/05/26 06:52:18;;;;;;;71.77;66.07;;;;;;;14.89;100.00;102139.38;1896366;75;26207;-72
2022/05/26 06:54:48;;;;;;;70.27;65.13;;;;;;;14.92;100.00;102147.80;1937096;73;26774;-71
2022/05/26 06:57:21;;;;;;;74.27;69.03;;;;;;;14.96;100.00;102144.70;1931272;74;26679;-70
2022/05/26 06:59:51;;;;;;;74.73;69.47;;;;;;;15.00;100.00;102143.02;1937115;74;26768;-72
2022/05/26 07:02:22;;;;;;;71.47;65.97;;;;;;;14.99;100.00;102159.52;1937248;74;26683;-71
2022/05/26 07:04:52;;;;;;;71.03;65.80;;;;;;;15.01;100.00;102154.49;1937256;74;26316;-70
2022/05/26 07:07:25;;;;;;;71.00;65.90;;;;;;;15.03;100.00;102155.03;1937159;74;26351;-69
2022/05/26 07:09:56;;;;;;;71.77;66.63;;;;;;;15.02;100.00;102163.14;1937085;74;26272;-70
2022/05/26 07:12:26;;;;;;;71.73;66.60;;;;;;;15.09;100.00;102165.10;1937015;74;26205;-75
2022/05/26 07:14:57;;;;;;;75.27;69.90;;;;;;;15.13;100.00;102173.77;1937137;74;26212;-71
2022/05/26 07:17:27;;;;;;;77.27;72.03;;;;;;;15.14;100.00;102169.85;1937098;74;26672;-73
2022/05/26 07:19:57;;;;;;;74.87;69.67;;;;;;;15.16;100.00;102170.39;1937052;74;26309;-72
2022/05/26 07:22:29;;;;;;;76.63;71.43;;;;;;;15.24;100.00;102167.01;1937219;74;26391;-73
2022/05/26 07:25:00;;;;;;;75.30;69.83;;;;;;;15.33;100.00;102159.14;1937206;74;26659;-73
2022/05/26 07:27:30;;;;;;;72.57;67.00;;;;;;;15.32;100.00;102167.26;1937336;74;26219;-72
2022/05/26 07:30:03;;;;;;;72.37;67.37;;;;;;;15.33;100.00;102166.14;1937103;72;26288;-70
2022/05/26 07:32:36;;;;;;;74.80;69.80;;;;;;;15.37;100.00;102161.64;1937143;74;26252;-71
2022/05/26 07:35:09;;;;;;;70.40;65.60;;;;;;;15.41;100.00;102166.95;1937144;74;26205;-76
2022/05/26 07:43:15;;;;;;;66.43;62.03;;;;;;;15.65;100.00;102165.78;1937104;74;26272;-70
2022/05/26 07:45:46;;;;;;;67.23;62.67;;;;;;;15.74;100.00;102159.86;1936970;74;26213;-71
2022/05/26 07:48:16;;;;;;;68.50;63.63;;;;;;;15.79;100.00;102157.00;1937053;74;26761;-71
2022/05/26 07:50:46;;;;;;;72.50;67.50;;;;;;;15.82;100.00;102155.61;1937022;74;26327;-70
2022/05/26 07:53:16;;;;;;;68.33;63.83;;;;;;;15.98;100.00;102155.78;1936904;74;26219;-71
2022/05/26 07:55:47;;;;;;;67.47;62.97;;;;;;;16.00;100.00;102156.34;1936978;74;26243;-70
2022/05/26 07:58:17;;;;;;;66.03;61.73;;;;;;;16.10;100.00;102153.45;1937154;74;26202;-71
2022/05/26 08:00:48;;;;;;;68.13;63.37;;;;;;;16.19;100.00;102155.92;1937023;74;26292;-71
2022/05/26 08:03:18;;;;;;;65.23;60.93;;;;;;;16.21;100.00;102152.83;1936912;74;26219;-70
2022/05/26 08:08:55;;;;;;;67.13;62.67;;;;;;;16.34;100.00;102157.78;2060866;69;32613;-71
2022/05/26 08:11:25;;;;;;;71.17;66.40;;;;;;;16.26;100.00;102171.84;1936128;73;26312;-71
2022/05/26 08:13:55;;;;;;;68.57;63.87;;;;;;;16.32;100.00;102174.05;1934684;73;26220;-71
2022/05/26 08:16:28;;;;;;;68.37;63.77;;;;;;;16.27;100.00;102170.72;1965987;73;26282;-72
2022/05/26 08:18:58;;;;;;;67.87;63.27;;;;;;;16.42;100.00;102171.73;1935133;73;26232;-70
2022/05/26 08:21:28;;;;;;;66.27;62.03;;;;;;;16.43;100.00;102170.62;2018429;70;26215;-71
2022/05/26 08:24:00;;;;;;;65.77;61.57;;;;;;;16.39;100.00;102164.73;2015522;70;26786;-71
2022/05/26 08:26:30;;;;;;;65.87;61.47;;;;;;;16.44;100.00;102163.30;2008637;70;26752;-71
2022/05/26 08:29:01;;;;;;;66.20;61.87;;;;;;;16.52;100.00;102168.83;2014786;70;26260;-71
2022/05/26 08:31:31;;;;;;;65.00;60.80;;;;;;;16.60;100.00;102166.27;2017535;70;24205;-70
2022/05/26 08:34:01;;;;;;;63.90;59.77;;;;;;;16.74;100.00;102167.27;2016830;70;26349;-70
2022/05/26 08:36:33;;;;;;;65.33;61.20;;;;;;;16.80;100.00;102177.34;2022946;70;26271;-71
2022/05/26 08:39:03;;;;;;;62.47;58.10;;;;;;;16.86;100.00;102175.89;1934691;73;26226;-71
2022/05/26 08:41:36;;;;;;;65.27;61.07;;;;;;;16.81;100.00;102178.17;1937835;74;24164;-72
2022/05/26 08:47:16;;;;;;;61.63;57.83;;;;;;;17.26;100.00;102176.28;2045799;69;32676;-69
2022/05/26 08:49:51;;;;;;;61.50;57.40;;;;;;;17.25;100.00;102187.24;1931533;73;26814;-70
2022/05/26 08:52:25;;;;;;;64.40;60.20;;;;;;;17.17;100.00;102194.08;2017071;70;26280;-70
2022/05/26 08:54:58;;;;;;;64.30;60.30;;;;;;;17.33;100.00;102194.17;2012227;71;26344;-71
2022/05/26 08:57:31;;;;;;;63.13;59.20;;;;;;;17.35;100.00;102194.73;1976051;72;26239;-71
2022/05/26 09:00:02;;;;;;;61.47;57.73;;;;;;;17.47;100.00;102199.92;1979214;72;26284;-71
2022/05/26 09:02:36;;;;;;;60.80;57.13;;;;;;;17.57;100.00;102199.81;1982019;72;26235;-71
2022/05/26 09:13:55;;;;;;;64.30;60.33;;;;;;;17.59;100.00;102207.39;2012230;70;24251;-71
2022/05/26 09:16:27;;;;;;;61.03;57.63;;;;;;;17.68;100.00;102212.06;2007811;70;26213;-70
2022/05/26 09:19:13;;;;;;;62.20;58.50;;;;;;;17.65;100.00;102218.28;1942118;73;24134;-70
2022/05/26 09:21:44;;;;;;;62.83;58.67;;;;;;;17.54;100.00;102208.25;1936418;73;26719;-72
2022/05/26 09:24:22;;;;;;;62.30;58.43;;;;;;;17.67;100.00;102216.59;2013028;70;26919;-72
2022/05/26 09:26:58;;;;;;;64.03;60.03;;;;;;;17.59;100.00;102217.23;2020210;70;26688;-72
2022/05/26 09:29:30;;;;;;;62.97;59.30;;;;;;;17.71;100.00;102210.05;2016621;70;24601;-72
2022/05/26 09:32:03;;;;;;;62.70;58.97;;;;;;;17.68;100.00;102214.02;2016922;70;26718;-72
2022/05/26 09:34:37;;;;;;;62.63;59.07;;;;;;;17.73;100.00;102227.45;2016959;70;24137;-72
2022/05/26 09:37:09;;;;;;;62.93;59.13;;;;;;;17.73;100.00;102227.45;2012943;70;26306;-72
2022/05/26 09:39:42;;;;;;;61.77;57.93;;;;;;;17.87;100.00;102221.95;2016334;70;24165;-72
2022/05/26 09:42:28;;;;;;;58.80;55.30;;;;;;;17.84;100.00;102224.53;2007155;70;26388;-72
2022/05/26 09:45:00;;;;;;;60.97;57.30;;;;;;;17.86;100.00;102220.27;2018504;70;26298;-72
2022/05/26 09:47:35;;;;;;;58.30;54.77;;;;;;;17.87;100.00;102219.70;2015111;70;24197;-72
2022/05/26 09:50:09;;;;;;;60.40;56.87;;;;;;;17.67;100.00;102224.42;2011168;70;24776;-71
2022/05/26 09:52:44;;;;;;;60.53;57.13;;;;;;;17.73;100.00;102226.05;2016711;71;24281;-71
2022/05/26 09:55:26;;;;;;;58.40;54.83;;;;;;;17.77;100.00;102223.47;2007251;71;24215;-72
2022/05/26 09:58:07;;;;;;;59.27;55.93;;;;;;;17.77;100.00;102236.13;1976361;72;24157;-72
2022/05/26 10:00:41;;;;;;;58.03;54.63;;;;;;;17.81;100.00;102230.73;1980296;72;26666;-72
2022/05/26 10:06:25;;;;;;;56.83;53.67;;;;;;;17.84;100.00;102227.34;2053030;69;30581;-72
2022/05/26 10:12:13;;;;;;;59.23;55.83;;;;;;;17.90;100.00;102214.30;2060960;69;32686;-71
2022/05/26 10:15:02;;;;;;;61.80;58.30;;;;;;;18.01;100.00;102213.62;2018778;70;24146;-72
2022/05/26 10:17:40;;;;;;;59.37;55.87;;;;;;;18.26;100.00;102199.19;1936203;73;24161;-72
2022/05/26 10:20:35;;;;;;;59.33;56.10;;;;;;;18.35;100.00;102198.77;1929271;73;24158;-72
2022/05/26 10:23:14;;;;;;;61.80;58.20;;;;;;;18.56;100.00;102188.89;2016891;71;24286;-72
2022/05/26 10:25:49;;;;;;;53.43;50.33;;;;;;;18.93;100.00;102190.77;2016758;71;24223;-72
2022/05/26 10:31:57;;;;;;;52.67;49.93;;;;;;;18.87;100.00;102180.73;2037825;69;30686;-71
2022/05/26 10:37:59;;;;;;;50.77;48.17;;;;;;;18.90;100.00;102201.26;2053051;69;30632;-71
2022/05/26 10:43:42;;;;;;;53.53;50.77;;;;;;;18.67;100.00;102189.55;2060836;69;30653;-71
2022/05/26 10:49:24;;;;;;;51.10;48.40;;;;;;;18.84;100.00;102198.25;2045261;69;31027;-72
2022/05/26 10:51:58;;;;;;;50.00;47.30;;;;;;;18.83;100.00;102204.18;1948955;73;24257;-71
2022/05/26 10:54:35;;;;;;;53.60;50.80;;;;;;;18.81;100.00;102204.51;1937575;73;26728;-71
2022/05/26 11:00:18;;;;;;;50.13;47.47;;;;;;;19.15;100.00;102190.09;2060845;69;30669;-72
2022/05/26 11:02:54;;;;;;;49.03;46.47;;;;;;;19.00;100.00;102198.80;2018436;71;24152;-71
2022/05/26 11:05:30;;;;;;;52.43;49.63;;;;;;;18.93;100.00;102197.81;2009167;70;24168;-71
2022/05/26 11:08:09;;;;;;;50.93;48.33;;;;;;;18.91;100.00;102188.83;2019487;70;24158;-72
2022/05/26 11:10:43;;;;;;;52.70;50.00;;;;;;;18.96;100.00;102194.94;2013101;70;24198;-73
2022/05/26 11:13:19;;;;;;;52.47;49.70;;;;;;;19.08;100.00;102201.75;2014548;70;24162;-72
2022/05/26 11:18:45;;;;;;;52.03;49.23;;;;;;;19.09;100.00;102187.09;2013695;70;24772;-71
2022/05/26 11:21:18;;;;;;;51.77;49.13;;;;;;;19.23;100.00;102192.19;2017292;70;24254;-72
2022/05/26 11:23:49;;;;;;;50.13;47.53;;;;;;;19.04;100.00;102192.81;2016190;70;26767;-72
2022/05/26 11:26:26;;;;;;;52.43;49.73;;;;;;;19.00;100.00;102190.36;2014721;70;24176;-72
2022/05/26 11:29:01;;;;;;;49.93;47.03;;;;;;;19.07;100.00;102186.58;2012410;70;24177;-72
2022/05/26 11:37:35;;;;;;;48.47;46.00;;;;;;;19.67;100.00;102168.22;2060959;69;30690;-71
2022/05/26 11:40:10;;;;;;;45.10;42.90;;;;;;;19.67;100.00;102173.86;2023822;71;24134;-71
2022/05/26 11:42:43;;;;;;;46.57;44.33;;;;;;;19.61;100.00;102170.30;2016848;71;24185;-72
2022/05/26 11:45:19;;;;;;;47.60;45.37;;;;;;;19.75;100.00;102179.59;2009633;70;24617;-72
2022/05/26 11:47:55;;;;;;;46.27;43.87;;;;;;;19.68;100.00;102166.48;2024612;70;24455;-72
2022/05/26 11:50:30;;;;;;;44.10;41.90;;;;;;;19.65;100.00;102177.55;2007668;70;24167;-72
2022/05/26 11:53:04;;;;;;;44.47;42.27;;;;;;;19.57;100.00;102177.72;1987821;71;24213;-72
2022/05/26 11:56:08;;;;;;;44.27;42.17;;;;;;;19.80;100.00;102165.39;2003851;70;24170;-72
2022/05/26 11:58:41;;;;;;;42.93;40.83;;;;;;;19.77;100.00;102165.16;1980231;72;24640;-72
2022/05/26 12:01:15;;;;;;;42.63;40.47;;;;;;;19.72;100.00;102171.78;1977791;72;24221;-72
2022/05/26 12:04:00;;;;;;;45.50;43.10;;;;;;;19.65;100.00;102168.53;1978869;72;24198;-72
2022/05/26 12:06:36;;;;;;;46.50;44.17;;;;;;;19.71;100.00;102175.73;1984618;72;24253;-72
2022/05/26 12:09:08;;;;;;;44.97;42.57;;;;;;;19.75;100.00;102185.23;1983233;72;24114;-71
2022/05/26 12:12:00;;;;;;;45.77;43.40;;;;;;;19.67;100.00;102183.73;1974494;72;24730;-72
2022/05/26 12:17:42;;;;;;;43.90;41.70;;;;;;;19.60;100.00;102179.91;2060991;69;30557;-71
2022/05/26 12:20:42;;;;;;;45.33;43.07;;;;;;;19.58;100.00;102177.16;1937266;73;26651;-72
2022/05/26 12:23:21;;;;;;;46.43;44.13;;;;;;;19.53;100.00;102168.22;1946521;73;24619;-72
2022/05/26 12:26:10;;;;;;;43.50;41.40;;;;;;;19.66;100.00;102178.66;1969867;72;24166;-73
2022/05/26 12:28:41;;;;;;;49.13;46.53;;;;;;;19.50;100.00;102180.14;1947538;73;24160;-71
2022/05/26 12:31:11;;;;;;;47.07;44.47;;;;;;;19.52;100.00;102180.64;1937625;73;24327;-72
2022/05/26 12:34:08;;;;;;;48.63;46.13;;;;;;;19.51;100.00;102175.58;1934855;73;24168;-71
2022/05/26 12:40:56;;;;;;;51.53;48.70;;;;;;;19.43;100.00;102170.67;2049552;69;30579;-73
2022/05/26 12:43:46;;;;;;;50.87;48.27;;;;;;;19.46;100.00;102177.11;1935253;73;24210;-73
2022/05/26 12:46:40;;;;;;;46.03;43.63;;;;;;;19.28;100.00;102180.82;1935568;73;24168;-72
2022/05/26 12:49:31;;;;;;;47.30;44.90;;;;;;;19.25;100.00;102182.86;2004702;70;24317;-72
2022/05/26 12:52:08;;;;;;;48.97;46.40;;;;;;;19.22;100.00;102184.03;2016757;70;24223;-74
2022/05/26 12:57:55;;;;;;;43.70;41.40;;;;;;;19.47;100.00;102176.52;2053646;69;30583;-72
2022/05/26 13:00:32;;;;;;;42.80;40.63;;;;;;;19.63;100.00;102179.30;1938998;73;24128;-72
2022/05/26 13:03:07;;;;;;;42.03;39.83;;;;;;;19.68;100.00;102176.34;1937740;74;24287;-72
2022/05/26 13:05:43;;;;;;;41.83;39.73;;;;;;;19.66;100.00;102180.64;1964318;72;24159;-72
2022/05/26 13:08:17;;;;;;;43.53;41.33;;;;;;;19.70;100.00;102184.50;1937694;74;24141;-71
2022/05/26 13:10:49;;;;;;;42.40;40.30;;;;;;;19.58;100.00;102182.22;1934011;73;24154;-71
2022/05/26 13:13:23;;;;;;;44.80;42.30;;;;;;;19.62;100.00;102172.55;1945979;73;24222;-72
2022/05/26 13:15:54;;;;;;;44.90;42.70;;;;;;;19.68;100.00;102166.48;1965973;72;24200;-72
2022/05/26 13:18:25;;;;;;;48.10;45.53;;;;;;;19.77;100.00;102177.28;1943853;73;24237;-72